Terminal Aerodrome Forecast
Issued by NWS

Current Version | Previous Version | Text Only | Print | Product List | Glossary On
Versions: 1 2 3 4 5 6 7 8 9 10 11 12 13 14 15
481
FTUS45 KFGZ 241120
TAFPRC
TAF
KPRC 241120Z 2412/2512 18006KT P6SM SCT090
     FM241800 28010KT P6SM SCT070 BKN120
      TEMPO 2420/2424 VRB10G20KT P6SM -TSRA BKN060CB
     FM250200 27006KT P6SM SCT120=

USA.gov is the U.S. government's official web portal to all federal, state and local government web resources and services.